Hozan Maru — JJ4010 — position and weather

sailwx.info

Track history (hours):
 
Tides and Currents Weather Stations Pressure Air Temp Water Temp Dewpoint Dewpoint Depression Visibility Wind Speed Wind Dir Waves Ship Positions

Hozan Maru

Last reported at 2015-Jul-01 22:33 UTC. Time now 2015-Jul-01 23:12 UTC.
Position N 34°35' E 135°24'.

Length 38 m; draft 3.6 m.

Type: Tug. MMSI: 431401501.

Date/timePositionNaut miles runAvg speedWind from/ knotsBaromVisibWave heightAir tempDewpointWater temp
2015-Jul-01 22:33N 34°35' E 135°24'6 0.1
2015-Jun-30 09:06N 34°40' E 135°27'610.8
2015-Jun-30 08:33N 34°35' E 135°24'2 2.2
2015-Jun-30 07:33N 34°33' E 135°26'1 0.7
2015-Jun-30 06:33N 34°33' E 135°27'0 0.0
2015-Jun-30 05:33N 34°33' E 135°27'1 1.3
2015-Jun-30 04:33N 34°33' E 135°25'7 6.6
2015-Jun-30 03:33N 34°40' E 135°27'0 0.4
2015-Jun-30 02:30N 34°40' E 135°27'0 0.2
2015-Jun-30 01:33N 34°40' E 135°27'9 9.0
2015-Jun-30 00:33N 34°32' E 135°23'1 1.2
2015-Jun-29 23:33N 34°32' E 135°22'2 1.5
2015-Jun-29 22:30N 34°32' E 135°24'1 1.1
2015-Jun-29 21:33N 34°33' E 135°23'8 7.9
2015-Jun-29 20:33N 34°40' E 135°27'  
2015-Jun-27 09:25N 34°40' E 135°27'1011.0
2015-Jun-27 08:33N 34°31' E 135°23'1 1.4
2015-Jun-27 07:32N 34°33' E 135°23'2 1.8
2015-Jun-27 06:33N 34°31' E 135°23'0 0.0
2015-Jun-27 05:33N 34°31' E 135°23'6 6.1
2015-Jun-27 04:33N 34°37' E 135°24'1 0.1
2015-Jun-26 06:33N 34°38' E 135°23'9 9.2
2015-Jun-26 05:33N 34°29' E 135°22'7 7.1
2015-Jun-26 04:33N 34°36' E 135°23'4 0.2
2015-Jun-25 03:33N 34°39' E 135°26'3 2.6
2015-Jun-25 02:33N 34°38' E 135°23'1 0.0
2015-Jun-24 09:12N 34°38' E 135°24'913.2
2015-Jun-24 08:33N 34°37' E 135°13'1211.9
2015-Jun-24 07:33N 34°38' E 134°59'9 1.5
2015-Jun-24 01:22N 34°40' E 134°48'0 0.1
2015-Jun-23 21:32N 34°40' E 134°48'7 6.6
2015-Jun-23 20:32N 34°37' E 134°55'1212.7
2015-Jun-23 19:33N 34°38' E 135°10'613.2
2015-Jun-23 19:05N 34°39' E 135°17'8 0.2
2015-Jun-22 11:16N 34°40' E 135°27'811.1
2015-Jun-22 10:32N 34°33' E 135°23'2 2.1
2015-Jun-22 09:27N 34°31' E 135°23'1 0.7
2015-Jun-22 08:33N 34°31' E 135°24'0 0.0
2015-Jun-22 07:33N 34°31' E 135°24'0 0.0
2015-Jun-22 06:33N 34°31' E 135°24'0 0.0
2015-Jun-22 05:33N 34°31' E 135°24'0 0.0
2015-Jun-22 04:33N 34°31' E 135°24'0 0.0
2015-Jun-22 03:33N 34°31' E 135°24'10 9.6
2015-Jun-22 02:33N 34°39' E 135°18'1 0.8
2015-Jun-22 01:33N 34°40' E 135°18'0 0.0
2015-Jun-22 00:33N 34°40' E 135°18'0 0.1
2015-Jun-21 23:33N 34°40' E 135°18'  
Track history (hours):
 
Tides and Currents Weather Stations Pressure Air Temp Water Temp Dewpoint Dewpoint Depression Visibility Wind Speed Wind Dir Waves Ship Positions

Hozan Maru

Last reported at 2015-Jul-01 22:33 UTC. Time now 2015-Jul-01 23:12 UTC.
Position N 34°35' E 135°24'.

Length 38 m; draft 3.6 m.

Type: Tug. MMSI: 431401501.

Date/timePositionNaut miles runAvg speedWind from/ knotsBaromVisibWave heightAir tempDewpointWater temp
2015-Jul-01 22:33N 34°35' E 135°24'6 0.1
2015-Jun-30 09:06N 34°40' E 135°27'610.8
2015-Jun-30 08:33N 34°35' E 135°24'2 2.2
2015-Jun-30 07:33N 34°33' E 135°26'1 0.7
2015-Jun-30 06:33N 34°33' E 135°27'0 0.0
2015-Jun-30 05:33N 34°33' E 135°27'1 1.3
2015-Jun-30 04:33N 34°33' E 135°25'7 6.6
2015-Jun-30 03:33N 34°40' E 135°27'0 0.4
2015-Jun-30 02:30N 34°40' E 135°27'0 0.2
2015-Jun-30 01:33N 34°40' E 135°27'9 9.0
2015-Jun-30 00:33N 34°32' E 135°23'1 1.2
2015-Jun-29 23:33N 34°32' E 135°22'2 1.5
2015-Jun-29 22:30N 34°32' E 135°24'1 1.1
2015-Jun-29 21:33N 34°33' E 135°23'8 7.9
2015-Jun-29 20:33N 34°40' E 135°27'  
2015-Jun-27 09:25N 34°40' E 135°27'1011.0
2015-Jun-27 08:33N 34°31' E 135°23'1 1.4
2015-Jun-27 07:32N 34°33' E 135°23'2 1.8
2015-Jun-27 06:33N 34°31' E 135°23'0 0.0
2015-Jun-27 05:33N 34°31' E 135°23'6 6.1
2015-Jun-27 04:33N 34°37' E 135°24'1 0.1
2015-Jun-26 06:33N 34°38' E 135°23'9 9.2
2015-Jun-26 05:33N 34°29' E 135°22'7 7.1
2015-Jun-26 04:33N 34°36' E 135°23'4 0.2
2015-Jun-25 03:33N 34°39' E 135°26'3 2.6
2015-Jun-25 02:33N 34°38' E 135°23'1 0.0
2015-Jun-24 09:12N 34°38' E 135°24'913.2
2015-Jun-24 08:33N 34°37' E 135°13'1211.9
2015-Jun-24 07:33N 34°38' E 134°59'9 1.5
2015-Jun-24 01:22N 34°40' E 134°48'0 0.1
2015-Jun-23 21:32N 34°40' E 134°48'7 6.6
2015-Jun-23 20:32N 34°37' E 134°55'1212.7
2015-Jun-23 19:33N 34°38' E 135°10'613.2
2015-Jun-23 19:05N 34°39' E 135°17'8 0.2
2015-Jun-22 11:16N 34°40' E 135°27'811.1
2015-Jun-22 10:32N 34°33' E 135°23'2 2.1
2015-Jun-22 09:27N 34°31' E 135°23'1 0.7
2015-Jun-22 08:33N 34°31' E 135°24'0 0.0
2015-Jun-22 07:33N 34°31' E 135°24'0 0.0
2015-Jun-22 06:33N 34°31' E 135°24'0 0.0
2015-Jun-22 05:33N 34°31' E 135°24'0 0.0
2015-Jun-22 04:33N 34°31' E 135°24'0 0.0
2015-Jun-22 03:33N 34°31' E 135°24'10 9.6
2015-Jun-22 02:33N 34°39' E 135°18'1 0.8
2015-Jun-22 01:33N 34°40' E 135°18'0 0.0
2015-Jun-22 00:33N 34°40' E 135°18'0 0.1
2015-Jun-21 23:33N 34°40' E 135°18'  

Dump ship's entire track history